Time;durP1;ratioP1;P1;durP2;ratioP2;P2;SDS_P1;SDS_P2;PMS_P1;PMS_P2;Temp;Humidity;BMP_temperature;BMP_pressure;BME280_temperature;BME280_humidity;BME280_pressure;Samples;Min_cycle;Max_cycle;Signal;HPM_P1;HPM_P2
2023/01/06 00:01:16;;;;;;;11.75;4.97;;;;;;;6.29;72.12;100635.38;1771397;80;25686;-60
2023/01/06 00:03:45;;;;;;;8.05;4.53;;;;;;;6.29;72.63;100643.89;1761336;80;26992;-59
2023/01/06 00:06:13;;;;;;;6.33;3.80;;;;;;;6.28;73.41;100646.19;1766405;80;25750;-59
2023/01/06 00:08:40;;;;;;;5.37;3.25;;;;;;;6.29;73.69;100631.86;1767190;81;25817;-59
2023/01/06 00:11:13;;;;;;;8.05;4.10;;;;;;;6.32;74.23;100645.01;1766016;80;26604;-59
2023/01/06 00:13:41;;;;;;;3.75;2.55;;;;;;;6.34;74.74;100649.27;1768895;80;25668;-59
2023/01/06 00:16:15;;;;;;;4.40;1.70;;;;;;;6.40;75.21;100657.32;1769535;80;28133;-59
2023/01/06 00:18:41;;;;;;;;;;;;;;;6.46;75.21;100637.28;1772066;81;25797;-59
2023/01/06 00:21:11;;;;;;;1.40;1.12;;;;;;;6.52;75.17;100637.70;1758230;80;25611;-60
2023/01/06 00:23:38;;;;;;;4.05;1.12;;;;;;;6.56;75.55;100640.99;1774633;80;25905;-59
2023/01/06 00:26:08;;;;;;;3.67;0.90;;;;;;;6.61;75.46;100633.50;1771327;80;26206;-59
2023/01/06 00:28:35;;;;;;;1.80;1.10;;;;;;;6.65;75.85;100634.97;1769845;81;27412;-59
2023/01/06 00:31:09;;;;;;;2.55;1.10;;;;;;;6.71;75.60;100632.33;1771133;80;25817;-59
2023/01/06 00:33:37;;;;;;;1.50;0.60;;;;;;;6.77;75.40;100638.54;1752444;80;25823;-59
2023/01/06 00:36:05;;;;;;;0.70;0.65;;;;;;;6.83;75.25;100638.56;1749243;80;26554;-59
2023/01/06 00:38:35;;;;;;;1.27;0.78;;;;;;;6.89;75.03;100639.46;1753931;80;25702;-59
2023/01/06 00:43:58;;;;;;;1.50;0.60;;;;;;;6.98;74.57;100636.09;1741931;80;25872;-59
2023/01/06 00:46:27;;;;;;;0.65;0.62;;;;;;;7.02;74.44;100646.91;1742411;80;25749;-59
2023/01/06 00:48:56;;;;;;;0.93;0.55;;;;;;;7.09;74.32;100659.81;1744664;80;25787;-59
2023/01/06 00:51:23;;;;;;;0.85;0.57;;;;;;;7.13;74.28;100670.66;1746745;80;25769;-59
2023/01/06 00:53:50;;;;;;;0.62;0.50;;;;;;;7.17;74.16;100666.80;1756436;81;27311;-59
2023/01/06 00:56:16;;;;;;;0.40;0.40;;;;;;;7.18;73.87;100674.70;1747645;80;25794;-59
2023/01/06 00:58:44;;;;;;;0.40;0.40;;;;;;;7.20;73.70;100683.47;1741138;82;25758;-59
2023/01/06 01:01:12;;;;;;;0.55;0.50;;;;;;;7.23;73.77;100690.87;1748802;82;26793;-59
2023/01/06 01:03:40;;;;;;;0.80;0.65;;;;;;;7.22;73.85;100693.20;1723903;82;25762;-59
2023/01/06 01:06:09;;;;;;;0.70;0.45;;;;;;;7.23;73.85;100700.23;1733613;82;27668;-59
2023/01/06 01:08:37;;;;;;;0.47;0.40;;;;;;;7.22;73.84;100692.70;1740361;82;25733;-59
2023/01/06 01:11:08;;;;;;;0.60;0.60;;;;;;;7.23;73.76;100702.44;1746767;80;25893;-59
2023/01/06 01:13:36;;;;;;;0.50;0.50;;;;;;;7.24;73.60;100700.61;1748611;82;26617;-59
2023/01/06 01:16:06;;;;;;;3.37;0.50;;;;;;;7.24;73.44;100697.93;1748583;80;26112;-59
2023/01/06 01:18:34;;;;;;;1.67;0.65;;;;;;;7.26;73.31;100696.00;1744803;80;27519;-59
2023/01/06 01:21:01;;;;;;;1.85;0.68;;;;;;;7.29;73.14;100707.81;1739849;81;25798;-59
2023/01/06 01:23:28;;;;;;;1.07;0.45;;;;;;;7.28;72.90;100691.39;1740585;82;25830;-60
2023/01/06 01:25:56;;;;;;;0.65;0.50;;;;;;;7.29;72.65;100691.77;1740256;82;25957;-59
2023/01/06 01:28:23;;;;;;;0.85;0.62;;;;;;;7.31;72.03;100689.80;1739837;82;25754;-59
2023/01/06 01:30:51;;;;;;;1.40;0.60;;;;;;;7.33;72.04;100691.41;1739625;82;28339;-59
2023/01/06 01:33:19;;;;;;;0.90;0.60;;;;;;;7.34;71.65;100693.12;1743640;80;25904;-59
2023/01/06 01:35:46;;;;;;;0.70;0.60;;;;;;;7.36;71.63;100695.67;1703892;82;25739;-59
2023/01/06 01:38:13;;;;;;;1.12;0.70;;;;;;;7.38;71.60;100691.53;1706212;82;25717;-59
2023/01/06 01:40:49;;;;;;;1.07;0.60;;;;;;;7.40;71.24;100694.95;1707362;82;25725;-59
2023/01/06 01:43:17;;;;;;;1.82;0.50;;;;;;;7.40;71.08;100698.47;1700132;83;27497;-59
2023/01/06 01:45:49;;;;;;;1.32;0.60;;;;;;;7.39;70.83;100695.91;1698737;84;25773;-60
2023/01/06 01:48:27;;;;;;;1.87;0.62;;;;;;;7.41;70.81;100693.48;1678971;83;26432;-59
2023/01/06 01:50:57;;;;;;;0.88;0.65;;;;;;;7.43;70.60;100692.05;1680267;83;25780;-59
2023/01/06 01:53:41;;;;;;;1.12;0.70;;;;;;;7.43;70.27;100694.22;1710002;83;25838;-59
2023/01/06 01:56:13;;;;;;;1.12;0.90;;;;;;;7.44;70.16;100696.44;1709441;83;30151;-59
2023/01/06 01:58:54;;;;;;;1.55;0.60;;;;;;;7.43;69.61;100693.38;1702584;83;25768;-59
2023/01/06 02:01:21;;;;;;;2.83;0.65;;;;;;;7.43;69.54;100687.53;1700727;83;25779;-59
2023/01/06 02:03:49;;;;;;;1.22;0.65;;;;;;;7.44;68.89;100687.91;1700273;83;25951;-60
2023/01/06 02:06:20;;;;;;;1.15;0.65;;;;;;;7.46;68.37;100695.34;1700930;83;25820;-59
2023/01/06 02:09:27;;;;;;;1.95;0.60;;;;;;;7.46;68.43;100688.65;1703577;83;28375;-60
2023/01/06 02:11:56;;;;;;;1.17;0.60;;;;;;;7.49;68.39;100698.26;1696925;83;25880;-58
2023/01/06 02:14:26;;;;;;;2.27;0.80;;;;;;;7.46;68.02;100689.98;1686469;83;25744;-58
2023/01/06 02:17:10;;;;;;;0.78;0.50;;;;;;;7.44;67.99;100695.94;1690793;83;26586;-59
2023/01/06 02:20:06;;;;;;;1.50;0.90;;;;;;;7.40;67.81;100699.80;1707204;82;25813;-58
2023/01/06 02:23:20;;;;;;;1.32;0.80;;;;;;;7.40;67.35;100712.34;1748063;81;27687;-59
2023/01/06 02:26:24;;;;;;;1.10;0.62;;;;;;;7.40;67.60;100702.48;1753477;81;25904;-59
2023/01/06 02:29:20;;;;;;;1.45;0.60;;;;;;;7.40;67.28;100710.51;1749354;81;26393;-59
2023/01/06 02:32:15;;;;;;;2.17;0.72;;;;;;;7.42;67.32;100724.63;1749254;81;25942;-59
2023/01/06 02:35:12;;;;;;;3.65;1.10;;;;;;;7.43;67.16;100734.88;1758246;80;25728;-59
2023/01/06 02:38:12;;;;;;;0.88;0.78;;;;;;;7.44;67.14;100738.76;1772312;80;28208;-60
2023/01/06 02:41:05;;;;;;;3.12;0.75;;;;;;;7.42;66.92;100747.38;1785473;80;25818;-59
2023/01/06 02:44:04;;;;;;;1.95;1.02;;;;;;;7.42;67.42;100754.57;1784876;80;25578;-59
2023/01/06 02:47:17;;;;;;;1.50;0.82;;;;;;;7.37;67.67;100766.97;1785167;80;25866;-59
2023/01/06 02:50:10;;;;;;;0.50;0.50;;;;;;;7.34;68.30;100769.86;1781656;80;25703;-58
2023/01/06 02:53:08;;;;;;;0.88;0.70;;;;;;;7.24;68.86;100771.05;1774195;80;27575;-58
2023/01/06 02:55:46;;;;;;;1.25;0.53;;;;;;;7.15;69.22;100772.57;1783064;80;25814;-59
2023/01/06 02:58:46;;;;;;;1.60;0.65;;;;;;;7.10;69.42;100780.09;1780941;80;25745;-59
2023/01/06 03:01:24;;;;;;;2.92;0.42;;;;;;;7.04;69.66;100778.72;1785561;80;25726;-59
2023/01/06 03:03:53;;;;;;;3.15;0.62;;;;;;;7.02;69.93;100773.13;1757733;80;25766;-60
2023/01/06 03:06:25;;;;;;;2.10;0.93;;;;;;;6.96;69.65;100769.08;1816045;79;27517;-60
2023/01/06 03:08:54;;;;;;;1.82;0.70;;;;;;;6.93;69.81;100767.95;1797202;78;25689;-59
2023/01/06 03:11:26;;;;;;;1.82;0.93;;;;;;;6.87;69.74;100771.09;1782641;79;25609;-60
2023/01/06 03:14:04;;;;;;;2.77;1.27;;;;;;;6.87;69.62;100777.77;1781104;80;26847;-60
2023/01/06 03:16:31;;;;;;;1.60;0.60;;;;;;;6.86;69.61;100792.11;1786270;80;25721;-59
2023/01/06 03:18:58;;;;;;;2.12;1.10;;;;;;;6.83;69.74;100794.99;1759759;80;27518;-59
2023/01/06 03:21:32;;;;;;;1.47;0.95;;;;;;;6.80;69.70;100792.56;1745699;80;25926;-59
2023/01/06 03:23:59;;;;;;;1.70;0.95;;;;;;;6.76;69.94;100798.61;1770417;80;25722;-59
2023/01/06 03:26:26;;;;;;;1.32;0.82;;;;;;;6.72;70.00;100806.47;1782481;80;25717;-59
2023/01/06 03:28:54;;;;;;;2.85;1.02;;;;;;;6.70;69.80;100803.92;1779960;80;25771;-59
2023/01/06 03:31:51;;;;;;;5.50;1.52;;;;;;;6.69;70.08;100803.55;1779712;80;28343;-59
2023/01/06 03:34:44;;;;;;;2.10;0.90;;;;;;;6.67;70.26;100807.30;1762366;80;25766;-59
2023/01/06 03:37:29;;;;;;;5.35;0.88;;;;;;;6.67;70.45;100808.63;1770743;78;25737;-59
2023/01/06 03:40:33;;;;;;;0.78;0.78;;;;;;;6.69;70.47;100822.26;1780800;79;26626;-58
2023/01/06 03:43:39;;;;;;;0.70;0.70;;;;;;;6.70;70.59;100810.60;1783914;79;25708;-59
2023/01/06 03:46:27;;;;;;;2.05;1.00;;;;;;;6.63;69.44;100827.18;1785979;80;27483;-59
2023/01/06 03:49:10;;;;;;;8.30;1.00;;;;;;;6.58;69.73;100832.39;1784416;80;25770;-58
2023/01/06 03:51:50;;;;;;;1.67;1.07;;;;;;;6.58;69.29;100837.73;1785892;80;25753;-59
2023/01/06 03:54:57;;;;;;;1.92;0.93;;;;;;;6.56;69.25;100847.67;1785663;80;25908;-59
2023/01/06 03:57:29;;;;;;;1.82;1.05;;;;;;;6.53;69.06;100841.20;1785238;80;26177;-59
2023/01/06 04:00:09;;;;;;;2.20;1.10;;;;;;;6.51;69.06;100836.92;1755998;80;27461;-59
2023/01/06 04:02:45;;;;;;;6.37;1.12;;;;;;;6.51;68.92;100843.11;1762206;80;26175;-59
2023/01/06 04:05:18;;;;;;;1.17;0.78;;;;;;;6.51;68.60;100855.14;1779211;80;25729;-59
2023/01/06 04:07:47;;;;;;;3.67;1.92;;;;;;;6.52;68.60;100869.38;1778997;80;25805;-58
2023/01/06 04:10:18;;;;;;;1.87;1.10;;;;;;;6.51;68.26;100867.17;1782992;80;25745;-58
2023/01/06 04:12:47;;;;;;;1.87;1.12;;;;;;;6.50;68.08;100865.95;1783218;80;27440;-58
2023/01/06 04:15:21;;;;;;;2.00;1.35;;;;;;;6.48;68.09;100863.39;1782801;80;26386;-59
2023/01/06 04:17:49;;;;;;;1.82;1.30;;;;;;;6.47;67.92;100872.84;1762629;80;25734;-58
2023/01/06 04:20:21;;;;;;;1.47;1.10;;;;;;;6.46;67.70;100880.02;1782639;78;25965;-58
2023/01/06 04:22:52;;;;;;;2.20;1.20;;;;;;;6.45;67.53;100875.62;1781197;80;25727;-59
2023/01/06 04:25:20;;;;;;;1.55;1.15;;;;;;;6.44;67.32;100885.94;1785567;80;27470;-58
2023/01/06 04:27:48;;;;;;;1.70;1.10;;;;;;;6.46;67.38;100895.17;1784599;80;25750;-58
2023/01/06 04:30:15;;;;;;;1.82;0.90;;;;;;;6.45;67.33;100894.83;1783285;79;25910;-59
2023/01/06 04:32:43;;;;;;;0.78;0.68;;;;;;;6.44;67.00;100899.80;1786750;78;25856;-59
2023/01/06 04:35:11;;;;;;;1.05;0.78;;;;;;;6.44;67.11;100901.97;1781342;79;25800;-58
2023/01/06 04:37:39;;;;;;;2.25;1.12;;;;;;;6.41;66.88;100905.72;1778455;80;28119;-59
2023/01/06 04:40:08;;;;;;;1.75;0.90;;;;;;;6.40;66.79;100911.18;1765919;80;25475;-59
2023/01/06 04:45:20;;;;;;;1.75;0.80;;;;;;;6.33;66.56;100921.42;1703945;82;26456;-59
2023/01/06 04:47:47;;;;;;;2.83;0.70;;;;;;;6.33;66.69;100928.56;1735037;82;25770;-58
2023/01/06 04:50:14;;;;;;;1.55;1.10;;;;;;;6.33;66.36;100928.56;1706204;84;27651;-58
2023/01/06 04:52:41;;;;;;;2.30;1.00;;;;;;;6.28;66.27;100940.06;1737138;82;25677;-59
2023/01/06 04:55:09;;;;;;;2.00;1.00;;;;;;;6.23;66.16;100945.72;1735398;82;26069;-59
2023/01/06 04:57:35;;;;;;;3.83;1.00;;;;;;;6.24;66.17;100952.28;1723506;82;25753;-58
2023/01/06 05:00:05;;;;;;;1.70;1.00;;;;;;;6.22;65.59;100953.34;1721642;83;25726;-58
2023/01/06 05:02:32;;;;;;;2.20;1.00;;;;;;;6.21;65.73;100957.85;1721681;83;27485;-58
2023/01/06 05:04:58;;;;;;;1.87;1.05;;;;;;;6.17;65.72;100965.68;1722068;83;25911;-59
2023/01/06 05:07:25;;;;;;;2.92;1.10;;;;;;;6.14;65.82;100976.56;1749137;82;25692;-58
2023/01/06 05:09:52;;;;;;;1.92;1.12;;;;;;;6.11;65.94;100976.30;1753725;80;25893;-58
2023/01/06 05:12:19;;;;;;;1.62;0.95;;;;;;;6.07;65.83;100981.94;1771290;80;25721;-58
2023/01/06 05:14:45;;;;;;;3.08;1.22;;;;;;;6.06;65.92;100986.44;1743284;82;27471;-59
2023/01/06 05:17:12;;;;;;;1.75;1.20;;;;;;;6.10;66.16;100988.42;1747381;80;25738;-58
2023/01/06 05:19:41;;;;;;;4.30;1.17;;;;;;;6.06;65.67;100998.92;1740319;80;25715;-59
2023/01/06 05:22:08;;;;;;;2.90;1.57;;;;;;;6.04;66.01;100984.84;1751382;80;26739;-59
2023/01/06 05:24:34;;;;;;;2.10;1.20;;;;;;;6.02;65.69;101003.61;1745715;80;25786;-58
2023/01/06 05:27:02;;;;;;;4.92;1.47;;;;;;;6.04;65.81;101011.54;1727408;80;27546;-59
2023/01/06 05:29:29;;;;;;;2.52;1.60;;;;;;;6.03;65.67;101007.16;1722721;80;25751;-59
2023/01/06 05:31:55;;;;;;;2.40;1.32;;;;;;;6.04;65.66;101019.06;1742161;81;25626;-58
2023/01/06 05:34:22;;;;;;;4.12;1.90;;;;;;;6.03;65.44;101016.01;1739384;81;25795;-59
2023/01/06 05:36:50;;;;;;;5.50;1.67;;;;;;;5.98;65.07;101018.11;1716170;82;25862;-59
2023/01/06 05:39:17;;;;;;;2.35;1.60;;;;;;;5.94;65.33;101007.23;1765527;80;27629;-58
2023/01/06 05:41:44;;;;;;;5.10;2.58;;;;;;;5.94;64.84;101026.80;1750880;81;25757;-59
2023/01/06 05:44:11;;;;;;;2.87;1.77;;;;;;;5.92;65.10;101022.03;1750956;81;25737;-59
2023/01/06 05:46:38;;;;;;;2.98;1.20;;;;;;;5.87;64.75;101033.47;1750531;81;25786;-59
2023/01/06 05:49:04;;;;;;;1.25;1.00;;;;;;;5.85;64.34;101014.50;1748670;81;26231;-58
2023/01/06 05:51:32;;;;;;;1.35;1.00;;;;;;;5.84;64.16;101033.69;1748638;80;27320;-59
2023/01/06 05:53:58;;;;;;;1.17;1.07;;;;;;;5.79;64.08;101029.10;1741883;81;26518;-59
2023/01/06 05:56:26;;;;;;;1.67;1.20;;;;;;;5.76;64.09;101034.17;1753624;81;25760;-59
2023/01/06 05:58:53;;;;;;;3.05;1.22;;;;;;;5.74;64.06;101044.58;1749592;81;25924;-59
2023/01/06 06:01:27;;;;;;;3.45;1.87;;;;;;;5.76;64.22;101052.02;1749400;81;25809;-59
2023/01/06 06:03:55;;;;;;;4.03;1.95;;;;;;;5.71;63.38;101060.77;1750908;81;27623;-59
2023/01/06 06:06:24;;;;;;;2.37;1.55;;;;;;;5.68;63.73;101065.84;1750653;81;25816;-59
2023/01/06 06:08:51;;;;;;;2.83;1.40;;;;;;;5.67;63.41;101078.80;1750655;81;25732;-59
2023/01/06 06:11:19;;;;;;;4.37;1.32;;;;;;;5.66;63.29;101081.08;1750355;81;25972;-59
2023/01/06 06:13:50;;;;;;;4.05;1.80;;;;;;;5.66;63.13;101096.26;1750256;81;25834;-59
2023/01/06 06:16:20;;;;;;;2.02;1.45;;;;;;;5.63;63.37;101103.50;1751207;81;27466;-59
2023/01/06 06:18:51;;;;;;;2.55;1.45;;;;;;;5.62;63.30;101112.45;1749460;81;25820;-58
2023/01/06 06:21:21;;;;;;;2.17;1.52;;;;;;;5.59;63.15;101123.34;1750411;81;25480;-58
2023/01/06 06:23:48;;;;;;;3.90;1.17;;;;;;;5.56;63.19;101121.34;1749182;81;25673;-59
2023/01/06 06:26:16;;;;;;;1.62;1.30;;;;;;;5.56;63.34;101123.52;1748198;81;25746;-58
2023/01/06 06:28:42;;;;;;;4.92;3.33;;;;;;;5.57;63.58;101140.38;1698736;82;27580;-59
2023/01/06 06:31:17;;;;;;;2.40;1.20;;;;;;;5.56;63.61;101143.53;1746230;80;25762;-59
2023/01/06 06:33:44;;;;;;;3.85;1.40;;;;;;;5.58;63.75;101150.10;1754456;80;25755;-59
2023/01/06 06:36:14;;;;;;;4.83;1.80;;;;;;;5.56;63.90;101167.55;1741980;81;25803;-59
2023/01/06 06:38:42;;;;;;;2.10;1.40;;;;;;;5.57;63.97;101153.72;1763437;80;25686;-58
2023/01/06 06:41:09;;;;;;;4.70;1.40;;;;;;;5.56;64.05;101168.89;1781755;78;27481;-58
2023/01/06 06:43:37;;;;;;;2.02;1.30;;;;;;;5.58;64.25;101173.66;1783733;80;25893;-59
2023/01/06 06:46:05;;;;;;;2.05;1.10;;;;;;;5.59;64.31;101186.52;1777068;80;25719;-59
2023/01/06 06:48:33;;;;;;;1.98;1.50;;;;;;;5.62;64.05;101201.02;1777740;78;25905;-59
2023/01/06 06:51:04;;;;;;;2.22;1.45;;;;;;;5.60;64.03;101203.77;1775914;80;25829;-59
2023/01/06 06:53:33;;;;;;;2.25;1.30;;;;;;;5.61;63.94;101209.98;1783864;80;27408;-59
2023/01/06 06:56:01;;;;;;;2.45;1.70;;;;;;;5.58;63.87;101224.83;1776745;80;25963;-59
2023/01/06 06:58:28;;;;;;;1.02;0.93;;;;;;;5.57;63.98;101219.11;1779523;80;25681;-59
2023/01/06 07:00:54;;;;;;;7.15;2.55;;;;;;;5.57;63.98;101225.78;1789389;80;25959;-60
2023/01/06 07:03:22;;;;;;;5.37;2.67;;;;;;;5.53;64.14;101229.11;1781540;80;25798;-59
2023/01/06 07:05:51;;;;;;;6.10;2.70;;;;;;;5.49;64.04;101230.27;1797163;79;27583;-59
2023/01/06 07:08:19;;;;;;;2.52;1.57;;;;;;;5.45;64.19;101224.25;1780861;79;25827;-59
2023/01/06 07:10:45;;;;;;;2.80;1.50;;;;;;;5.46;64.20;101229.98;1781088;80;26486;-60
2023/01/06 07:13:13;;;;;;;5.15;1.67;;;;;;;5.46;63.92;101231.77;1781476;78;25799;-59
2023/01/06 07:15:39;;;;;;;3.47;1.65;;;;;;;5.45;63.96;101228.26;1777344;80;25518;-59
2023/01/06 07:18:06;;;;;;;1.80;1.22;;;;;;;5.52;64.03;101229.22;1767248;80;28132;-59
2023/01/06 07:20:36;;;;;;;4.78;1.55;;;;;;;5.53;63.72;101238.45;1756206;80;25706;-59
2023/01/06 07:23:03;;;;;;;2.40;1.60;;;;;;;5.53;63.57;101238.45;1741700;80;25734;-59
2023/01/06 07:25:31;;;;;;;3.00;1.90;;;;;;;5.53;63.42;101241.13;1770941;79;26800;-59
2023/01/06 07:28:04;;;;;;;1.82;1.20;;;;;;;5.59;63.59;101254.13;1745941;80;25759;-59
2023/01/06 07:30:31;;;;;;;2.10;1.17;;;;;;;5.60;63.04;101265.16;1775861;80;27600;-59
2023/01/06 07:32:59;;;;;;;2.40;1.00;;;;;;;5.62;63.08;101256.58;1774500;79;25778;-60
2023/01/06 07:35:27;;;;;;;2.77;1.52;;;;;;;5.68;62.60;101258.52;1803144;79;25838;-60
2023/01/06 07:37:54;;;;;;;4.08;2.00;;;;;;;5.73;62.54;101265.30;1773369;80;25776;-59
2023/01/06 07:40:21;;;;;;;3.80;2.30;;;;;;;5.74;62.20;101268.82;1772136;80;25761;-59
2023/01/06 07:42:48;;;;;;;3.50;1.77;;;;;;;5.76;62.20;101266.92;1752743;80;27514;-59
2023/01/06 07:45:15;;;;;;;2.65;1.62;;;;;;;5.82;62.04;101269.21;1744290;81;25762;-59
2023/01/06 07:47:41;;;;;;;2.20;1.70;;;;;;;5.84;61.67;101275.32;1753459;81;25663;-59
2023/01/06 07:50:08;;;;;;;4.40;1.75;;;;;;;5.89;62.16;101267.03;1761407;81;25891;-60
2023/01/06 07:52:35;;;;;;;3.45;1.42;;;;;;;5.93;61.71;101268.09;1752058;81;26108;-59
2023/01/06 07:55:04;;;;;;;5.55;2.58;;;;;;;6.03;61.40;101271.08;1748733;80;27502;-59
2023/01/06 07:57:31;;;;;;;2.40;1.30;;;;;;;6.08;60.87;101278.80;1689514;83;26016;-59
2023/01/06 07:59:57;;;;;;;3.58;1.15;;;;;;;6.13;60.81;101270.50;1715700;82;25758;-59
2023/01/06 08:02:24;;;;;;;2.30;1.30;;;;;;;6.22;60.69;101272.61;1710911;82;25946;-60
2023/01/06 08:04:51;;;;;;;1.42;1.02;;;;;;;6.23;60.59;101272.99;1709549;83;25776;-59
2023/01/06 08:07:18;;;;;;;4.42;0.85;;;;;;;6.28;60.40;101265.53;1702008;83;27442;-59
2023/01/06 08:09:44;;;;;;;2.90;1.00;;;;;;;6.33;59.96;101274.14;1703378;84;25924;-59
2023/01/06 08:12:11;;;;;;;2.25;1.00;;;;;;;6.36;59.81;101277.09;1702807;84;25787;-58
2023/01/06 08:14:38;;;;;;;3.72;1.62;;;;;;;6.36;59.50;101296.67;1703431;83;26493;-58
2023/01/06 08:17:05;;;;;;;2.75;1.25;;;;;;;6.34;59.70;101295.90;1699641;83;25778;-59
2023/01/06 08:19:32;;;;;;;1.50;0.95;;;;;;;6.36;59.76;101286.44;1699832;83;28573;-59
2023/01/06 08:22:00;;;;;;;1.00;0.93;;;;;;;6.42;59.37;101276.69;1700905;83;25825;-59
2023/01/06 08:24:29;;;;;;;1.60;1.07;;;;;;;6.42;59.26;101300.75;1703335;83;25724;-58
2023/01/06 08:26:56;;;;;;;1.47;1.00;;;;;;;6.47;59.21;101304.01;1697973;83;26460;-59
2023/01/06 08:29:24;;;;;;;3.00;1.10;;;;;;;6.46;59.40;101306.30;1682736;84;25752;-59
2023/01/06 08:31:51;;;;;;;2.20;1.25;;;;;;;6.48;59.49;101312.41;1705503;83;27532;-59
2023/01/06 08:34:19;;;;;;;3.98;2.52;;;;;;;6.50;59.38;101325.67;1693477;83;25858;-59
2023/01/06 08:36:46;;;;;;;1.70;1.10;;;;;;;6.48;59.67;101333.80;1692535;82;25715;-59
2023/01/06 08:39:13;;;;;;;0.80;0.80;;;;;;;6.49;59.61;101330.62;1784230;79;25757;-59
2023/01/06 08:41:41;;;;;;;3.08;1.65;;;;;;;6.51;59.64;101340.27;1795332;79;26200;-58
2023/01/06 08:44:08;;;;;;;1.75;1.02;;;;;;;6.49;59.84;101352.89;1791747;79;28246;-59
2023/01/06 08:46:34;;;;;;;1.42;1.10;;;;;;;6.53;59.79;101346.38;1792281;79;25753;-59
2023/01/06 08:49:01;;;;;;;3.52;1.37;;;;;;;6.53;60.13;101363.75;1785745;79;25741;-59
2023/01/06 08:51:28;;;;;;;2.95;1.90;;;;;;;6.55;59.92;101358.30;1788827;79;25882;-58
2023/01/06 08:53:55;;;;;;;3.50;1.30;;;;;;;6.48;60.24;101363.19;1784030;79;25456;-58
2023/01/06 08:56:28;;;;;;;1.60;1.10;;;;;;;6.50;60.52;101362.59;1791922;79;27556;-58
2023/01/06 08:58:58;;;;;;;4.03;1.25;;;;;;;6.52;59.36;101342.48;1791008;79;25750;-59
2023/01/06 09:01:29;;;;;;;3.25;1.05;;;;;;;6.41;58.98;101375.19;1785171;80;25738;-58
2023/01/06 09:03:59;;;;;;;1.12;0.70;;;;;;;6.36;58.95;101373.30;1786121;80;25931;-59
2023/01/06 09:06:27;;;;;;;4.03;1.20;;;;;;;6.33;59.18;101380.15;1790457;79;25739;-59
2023/01/06 09:08:55;;;;;;;1.22;0.78;;;;;;;6.23;58.79;101376.70;1789722;78;27646;-59
2023/01/06 09:11:22;;;;;;;4.28;0.93;;;;;;;6.21;58.92;101389.31;1786386;80;26462;-59
2023/01/06 09:13:50;;;;;;;2.75;1.25;;;;;;;6.19;58.83;101387.66;1786224;80;25718;-59
2023/01/06 09:16:17;;;;;;;5.08;1.10;;;;;;;6.11;59.03;101404.17;1751447;81;26650;-60
2023/01/06 09:18:48;;;;;;;4.42;1.00;;;;;;;6.10;59.26;101413.98;1786202;80;25702;-60
2023/01/06 09:21:13;;;;;;;3.87;1.20;;;;;;;6.00;59.04;101426.65;1750960;81;27647;-58
2023/01/06 09:23:40;;;;;;;1.50;0.88;;;;;;;5.98;58.99;101415.16;1762975;80;25722;-59
2023/01/06 09:26:07;;;;;;;4.70;1.45;;;;;;;6.00;59.20;101433.33;1751267;81;25825;-60
2023/01/06 09:28:34;;;;;;;2.25;1.65;;;;;;;6.01;59.07;101431.05;1763920;81;25850;-59
2023/01/06 09:31:02;;;;;;;2.52;1.00;;;;;;;6.04;59.05;101430.38;1751022;81;25799;-59
2023/01/06 09:33:29;;;;;;;6.25;3.33;;;;;;;6.04;59.19;101441.56;1758781;81;27472;-59
2023/01/06 09:35:56;;;;;;;5.72;1.50;;;;;;;6.00;59.12;101456.03;1743552;82;25501;-59
2023/01/06 09:38:23;;;;;;;3.60;1.47;;;;;;;5.97;59.15;101449.03;1789796;79;25783;-59
2023/01/06 09:41:19;;;;;;;2.75;1.02;;;;;;;6.00;59.28;101451.56;1777415;80;25872;-59
2023/01/06 09:44:14;;;;;;;4.10;1.72;;;;;;;6.04;59.30;101445.56;1775391;78;25806;-59
2023/01/06 09:46:43;;;;;;;;;;;;;;;6.03;58.57;101451.36;1781224;80;28583;-59
2023/01/06 09:49:51;;;;;;;5.33;1.52;;;;;;;6.09;58.78;101444.34;1772043;80;25794;-59
2023/01/06 09:52:43;;;;;;;6.75;1.70;;;;;;;6.15;58.57;101435.08;1771187;81;25722;-59
2023/01/06 09:55:18;;;;;;;4.65;1.80;;;;;;;6.25;58.42;101429.58;1771984;80;25783;-60
2023/01/06 09:57:56;;;;;;;1.10;0.90;;;;;;;6.30;58.13;101439.14;1771101;80;26338;-58
2023/01/06 10:00:46;;;;;;;2.22;0.90;;;;;;;6.39;58.39;101435.92;1772060;80;27454;-59
2023/01/06 10:03:17;;;;;;;0.93;0.80;;;;;;;6.44;58.08;101445.00;1748208;81;25730;-59
2023/01/06 10:06:12;;;;;;;2.12;0.95;;;;;;;6.46;57.68;101452.42;1769242;81;25772;-59
2023/01/06 10:08:56;;;;;;;1.00;0.70;;;;;;;6.42;57.42;101472.67;1767283;80;25804;-59
2023/01/06 10:11:47;;;;;;;1.00;0.90;;;;;;;6.46;57.08;101453.76;1749593;80;25787;-59
2023/01/06 10:14:40;;;;;;;0.98;0.88;;;;;;;6.47;56.40;101444.79;1775607;80;28627;-60
2023/01/06 10:17:31;;;;;;;2.45;0.72;;;;;;;6.46;55.95;101442.61;1770687;80;25914;-59
2023/01/06 10:20:46;;;;;;;3.12;1.02;;;;;;;6.42;56.15;101453.96;1771753;80;25812;-59
2023/01/06 10:23:30;;;;;;;0.98;0.90;;;;;;;6.43;56.13;101450.80;1772060;81;25798;-59
2023/01/06 10:26:30;;;;;;;1.07;0.90;;;;;;;6.38;55.73;101468.94;1771743;80;53662;-59
2023/01/06 10:29:16;;;;;;;1.27;0.60;;;;;;;6.41;56.30;101468.27;1771878;81;27473;-60
2023/01/06 10:31:46;;;;;;;0.82;0.82;;;;;;;6.44;56.06;101468.56;1746002;81;25767;-59
2023/01/06 10:34:21;;;;;;;3.87;1.00;;;;;;;6.52;55.74;101482.81;1761024;81;25740;-59
2023/01/06 10:37:11;;;;;;;4.92;0.88;;;;;;;6.50;55.56;101485.55;1713186;82;25861;-59
2023/01/06 10:39:42;;;;;;;0.93;0.72;;;;;;;6.50;55.66;101480.20;1744498;81;25785;-59
2023/01/06 10:45:14;;;;;;;2.85;0.88;;;;;;;6.70;55.99;101489.72;1737618;81;25537;-59
2023/01/06 10:47:43;;;;;;;2.87;1.00;;;;;;;6.78;55.91;101497.75;1750511;81;25797;-59
2023/01/06 10:50:16;;;;;;;1.37;0.70;;;;;;;6.84;55.26;101498.24;1737734;81;25789;-59
2023/01/06 10:52:46;;;;;;;0.80;0.75;;;;;;;6.83;55.40;101506.34;1737600;82;25767;-59
2023/01/06 10:55:36;;;;;;;1.70;1.22;;;;;;;6.80;55.35;101486.48;1737200;82;27465;-60
2023/01/06 10:58:46;;;;;;;3.15;1.02;;;;;;;6.77;54.85;101494.19;1730042;82;25773;-59
2023/01/06 11:01:18;;;;;;;5.97;1.00;;;;;;;6.72;55.08;101494.97;1737451;82;25806;-59
2023/01/06 11:03:46;;;;;;;4.87;0.60;;;;;;;6.76;54.52;101500.53;1737150;82;25834;-58
2023/01/06 11:06:28;;;;;;;1.30;0.90;;;;;;;6.83;54.01;101506.34;1736902;82;25830;-59
2023/01/06 11:08:56;;;;;;;3.70;1.15;;;;;;;6.80;54.11;101507.87;1735620;82;27454;-59
2023/01/06 11:11:24;;;;;;;10.15;1.10;;;;;;;6.78;54.25;101515.98;1735415;82;25638;-59
2023/01/06 11:13:56;;;;;;;1.60;1.17;;;;;;;6.83;54.18;101519.25;1735769;81;25810;-59
2023/01/06 11:16:30;;;;;;;1.22;0.90;;;;;;;6.84;53.38;101507.60;1735490;82;25797;-59
2023/01/06 11:18:59;;;;;;;;;;;;;;;6.78;52.75;101525.83;1738514;81;25831;-59
2023/01/06 11:21:45;;;;;;;1.27;1.10;;;;;;;6.64;53.11;101514.63;1734584;82;27553;-59
2023/01/06 11:24:25;;;;;;;1.17;1.00;;;;;;;6.56;53.29;101540.47;1735702;82;25964;-60
2023/01/06 11:27:14;;;;;;;1.40;0.90;;;;;;;6.50;53.54;101537.68;1735522;81;25752;-60
2023/01/06 11:29:41;;;;;;;2.20;1.00;;;;;;;6.40;53.42;101544.55;1735672;81;26522;-60
2023/01/06 11:32:19;;;;;;;7.17;2.00;;;;;;;6.33;53.33;101547.17;1735410;82;25803;-60
2023/01/06 11:35:02;;;;;;;3.77;1.10;;;;;;;6.33;53.74;101547.17;1783572;80;27694;-58
2023/01/06 11:37:43;;;;;;;1.20;1.10;;;;;;;6.38;53.91;101541.09;1797386;78;25717;-59
2023/01/06 11:40:32;;;;;;;1.42;1.22;;;;;;;6.33;53.70;101561.87;1765221;79;25797;-58
2023/01/06 11:43:07;;;;;;;2.47;2.08;;;;;;;6.31;53.40;101567.80;1794318;79;25975;-58
2023/01/06 11:45:38;;;;;;;2.02;1.72;;;;;;;6.22;53.43;101568.72;1758973;79;25864;-58
2023/01/06 11:48:19;;;;;;;1.87;1.37;;;;;;;6.11;53.74;101573.81;1741486;80;27486;-58
2023/01/06 11:50:56;;;;;;;1.70;1.45;;;;;;;6.08;54.07;101573.97;1780766;79;25858;-60
2023/01/06 11:53:23;;;;;;;2.42;1.62;;;;;;;6.08;54.25;101585.99;1786146;79;25768;-59
2023/01/06 11:56:17;;;;;;;6.37;2.62;;;;;;;6.07;54.71;101589.61;1773669;79;25862;-59
2023/01/06 11:59:02;;;;;;;4.42;1.30;;;;;;;6.03;54.67;101582.25;1792955;79;26054;-58
2023/01/06 12:01:46;;;;;;;5.40;2.10;;;;;;;6.04;54.97;101579.12;1794598;79;28196;-59
2023/01/06 12:04:28;;;;;;;;;;;;;;;6.04;54.86;101585.80;1797168;79;25778;-59
2023/01/06 12:07:02;;;;;;;4.90;2.00;;;;;;;6.02;54.63;101582.34;1784819;79;25785;-58
2023/01/06 12:09:33;;;;;;;3.27;1.33;;;;;;;6.02;54.76;101589.87;1769189;81;25812;-59
2023/01/06 12:12:06;;;;;;;3.15;2.10;;;;;;;6.09;54.97;101587.72;1768613;80;25920;-59